createdAt,value
2022-10-19T00:02:51.528Z,3.15
2022-10-19T00:07:57.478Z,3.00
2022-10-19T00:13:04.927Z,3.08
2022-10-19T00:18:11.682Z,3.38
2022-10-19T00:23:18.769Z,3.20
2022-10-19T00:28:27.653Z,3.85
2022-10-19T00:33:34.005Z,3.03
2022-10-19T00:38:39.923Z,3.75
2022-10-19T00:44:00.450Z,3.30
2022-10-19T00:49:12.673Z,3.83
2022-10-19T00:54:20.399Z,4.13
2022-10-19T00:59:32.036Z,3.72
2022-10-19T01:04:41.807Z,3.92
2022-10-19T01:09:48.384Z,3.78
2022-10-19T01:15:14.002Z,3.97
2022-10-19T01:21:06.434Z,3.80
2022-10-19T01:26:36.414Z,3.63
2022-10-19T01:31:49.442Z,4.20
2022-10-19T01:37:04.429Z,3.55
2022-10-19T01:42:17.530Z,3.95
2022-10-19T01:47:31.954Z,4.50
2022-10-19T01:52:42.381Z,3.95
2022-10-19T01:57:56.951Z,4.05
2022-10-19T02:03:07.680Z,4.07
2022-10-19T02:08:19.941Z,4.28
2022-10-19T02:13:30.101Z,3.85
2022-10-19T02:18:44.595Z,5.28
2022-10-19T02:23:54.167Z,4.13
2022-10-19T02:29:03.273Z,4.28
2022-10-19T02:34:11.730Z,3.83
2022-10-19T02:39:31.799Z,3.87
2022-10-19T02:44:45.505Z,3.85
2022-10-19T02:49:53.853Z,4.45
2022-10-19T02:55:01.413Z,4.30
2022-10-19T03:05:18.134Z,4.18
2022-10-19T03:10:24.075Z,4.55
2022-10-19T03:15:30.521Z,3.80
2022-10-19T03:20:38.130Z,4.13
2022-10-19T03:25:44.303Z,4.13
2022-10-19T03:30:51.781Z,3.60
2022-10-19T03:36:22.291Z,3.78
2022-10-19T03:41:30.925Z,4.32
2022-10-19T03:46:38.607Z,3.53
2022-10-19T03:51:46.273Z,3.65
2022-10-19T03:56:52.384Z,3.78
2022-10-19T04:01:58.221Z,4.25
2022-10-19T04:07:06.811Z,2.80
2022-10-19T04:12:13.113Z,3.08
2022-10-19T04:17:21.872Z,3.42
2022-10-19T04:22:31.699Z,3.08
2022-10-19T04:27:38.097Z,2.60
2022-10-19T04:32:43.886Z,2.38
2022-10-19T04:37:51.668Z,3.33
2022-10-19T04:42:57.914Z,2.90
2022-10-19T04:48:04.628Z,2.92
2022-10-19T04:53:12.245Z,3.15
2022-10-19T04:58:18.565Z,2.40
2022-10-19T05:03:24.458Z,2.25
2022-10-19T05:08:31.861Z,2.35
2022-10-19T05:13:37.992Z,2.42
2022-10-19T05:18:44.092Z,1.70
2022-10-19T05:23:54.687Z,1.95
2022-10-19T05:29:04.687Z,1.90
2022-10-19T05:34:11.076Z,1.70
2022-10-19T05:39:39.035Z,2.25
2022-10-19T05:44:46.673Z,2.47
2022-10-19T05:49:53.105Z,2.20
2022-10-19T05:55:00.528Z,2.20
2022-10-19T06:00:07.845Z,2.25
2022-10-19T06:05:17.950Z,1.83
2022-10-19T06:10:25.315Z,1.65
2022-10-19T06:15:33.920Z,2.55
2022-10-19T06:20:41.968Z,2.10
2022-10-19T06:25:49.540Z,2.03
2022-10-19T06:30:55.632Z,2.33
2022-10-19T06:36:09.136Z,2.13
2022-10-19T06:41:17.831Z,2.00
2022-10-19T06:46:26.647Z,1.92
2022-10-19T06:51:34.888Z,1.50
2022-10-19T06:56:43.401Z,1.70
2022-10-19T07:01:49.414Z,2.10
2022-10-19T07:06:55.448Z,2.00
2022-10-19T07:12:03.048Z,2.85
2022-10-19T07:17:11.958Z,1.85
2022-10-19T07:22:22.195Z,2.00
2022-10-19T07:27:37.383Z,1.90
2022-10-19T07:32:46.965Z,2.10
2022-10-19T07:37:53.349Z,2.20
2022-10-19T07:43:01.468Z,1.92
2022-10-19T07:48:08.323Z,1.88
2022-10-19T07:53:14.492Z,1.95
2022-10-19T07:58:22.014Z,2.30
2022-10-19T08:04:31.785Z,2.10
2022-10-19T08:08:56.250Z,2.42
2022-10-19T08:14:04.873Z,1.83
2022-10-19T08:19:14.319Z,1.75
2022-10-19T08:24:21.745Z,2.10
2022-10-19T08:29:31.480Z,2.10
2022-10-19T08:34:38.122Z,1.90
2022-10-19T08:39:44.030Z,1.73
2022-10-19T08:45:20.624Z,1.40
2022-10-19T08:50:30.837Z,1.45
2022-10-19T08:55:52.403Z,1.50
2022-10-19T09:01:08.930Z,0.95
2022-10-19T09:06:24.563Z,1.20
2022-10-19T09:11:34.373Z,0.98
2022-10-19T09:16:41.894Z,0.80
2022-10-19T09:21:53.243Z,0.80
2022-10-19T09:27:03.072Z,0.90
2022-10-19T09:32:19.752Z,0.82
2022-10-19T09:37:27.000Z,0.70
2022-10-19T09:42:37.181Z,0.60
2022-10-19T09:47:50.095Z,0.80
2022-10-19T09:52:59.077Z,0.70
2022-10-19T10:03:29.601Z,0.55
2022-10-19T10:08:40.799Z,0.70
2022-10-19T10:13:53.732Z,0.47
2022-10-19T10:19:07.795Z,0.40
2022-10-19T10:24:20.800Z,0.52
2022-10-19T10:29:30.234Z,0.68
2022-10-19T10:35:01.036Z,0.88
2022-10-19T10:40:23.748Z,0.70
2022-10-19T10:45:35.170Z,1.05
2022-10-19T10:50:43.078Z,0.63
2022-10-19T10:56:00.039Z,0.63
2022-10-19T11:01:24.046Z,0.50
2022-10-19T11:06:34.491Z,0.50
2022-10-19T11:11:47.056Z,0.40
2022-10-19T11:16:57.506Z,0.38
2022-10-19T11:22:23.589Z,0.90
2022-10-19T11:27:49.362Z,0.95
2022-10-19T11:33:06.718Z,0.50
2022-10-19T11:38:48.641Z,0.30
2022-10-19T11:44:22.815Z,0.60
2022-10-19T11:49:48.661Z,0.52
2022-10-19T11:55:17.968Z,0.57
2022-10-19T12:00:38.828Z,0.80
2022-10-19T12:06:02.509Z,0.63
2022-10-19T12:11:28.965Z,0.40
2022-10-19T12:16:41.797Z,0.30
2022-10-19T12:21:49.514Z,0.40
2022-10-19T12:26:57.630Z,0.40
2022-10-19T12:32:06.589Z,0.23
2022-10-19T12:37:20.439Z,0.52
2022-10-19T12:42:35.014Z,0.20
2022-10-19T12:47:43.041Z,0.30
2022-10-19T12:52:53.174Z,0.40
2022-10-19T12:58:08.265Z,0.35
2022-10-19T13:03:27.622Z,0.30
2022-10-19T13:08:42.786Z,0.40
2022-10-19T13:14:06.898Z,0.50
2022-10-19T13:19:32.367Z,0.40
2022-10-19T13:29:53.588Z,1.20
2022-10-19T13:35:33.071Z,0.50
2022-10-19T13:45:56.806Z,0.30
2022-10-19T13:51:13.991Z,0.73
2022-10-19T14:02:30.026Z,0.35
2022-10-19T14:07:50.018Z,0.30
2022-10-19T14:12:57.423Z,0.30
2022-10-19T14:18:24.988Z,0.30
2022-10-19T14:23:33.922Z,0.40
2022-10-19T14:33:57.651Z,0.30
2022-10-19T14:39:04.030Z,0.30
2022-10-19T14:44:42.240Z,0.28
2022-10-19T14:49:50.731Z,0.93
2022-10-19T14:54:59.046Z,0.50
2022-10-19T15:00:11.115Z,0.68
2022-10-19T15:05:24.390Z,0.70
2022-10-19T15:10:43.900Z,0.75
2022-10-19T15:15:54.039Z,0.70
2022-10-19T15:21:14.945Z,0.88
2022-10-19T15:26:31.595Z,0.88
2022-10-19T15:31:42.323Z,0.63
2022-10-19T15:42:40.145Z,0.63
2022-10-19T15:48:31.948Z,1.27
2022-10-19T15:53:38.722Z,0.60
2022-10-19T15:58:46.594Z,0.65
2022-10-19T16:03:53.233Z,0.50
2022-10-19T16:09:01.594Z,0.90
2022-10-19T16:14:09.934Z,0.90
2022-10-19T16:19:16.638Z,1.02
2022-10-19T16:24:22.778Z,1.67
2022-10-19T16:29:30.963Z,2.88
2022-10-19T16:34:38.424Z,1.88
2022-10-19T16:39:44.615Z,1.70
2022-10-19T16:44:54.997Z,1.40
2022-10-19T16:50:04.746Z,1.88
2022-10-19T16:55:12.252Z,2.60
2022-10-19T17:00:20.691Z,1.85
2022-10-19T17:10:38.674Z,1.40
2022-10-19T17:15:46.695Z,1.75
2022-10-19T17:20:55.548Z,1.10
2022-10-19T17:31:13.303Z,1.40
2022-10-19T17:36:27.997Z,1.02
2022-10-19T17:41:35.777Z,1.20
2022-10-19T17:46:46.763Z,1.33
2022-10-19T17:51:54.949Z,1.50
2022-10-19T17:57:02.189Z,1.80
2022-10-19T18:02:12.215Z,2.33
2022-10-19T18:07:20.153Z,2.00
2022-10-19T18:12:28.008Z,1.48
2022-10-19T18:17:37.273Z,1.50
2022-10-19T18:22:47.629Z,1.80
2022-10-19T18:27:55.162Z,2.47
2022-10-19T18:33:03.411Z,1.70
2022-10-19T18:38:10.603Z,1.50
2022-10-19T18:43:19.588Z,1.60
2022-10-19T18:48:31.472Z,1.67
2022-10-19T18:53:38.882Z,1.95
2022-10-19T18:58:46.929Z,1.52
2022-10-19T19:04:01.297Z,1.45
2022-10-19T19:09:11.884Z,1.45
2022-10-19T19:14:23.817Z,1.73
2022-10-19T19:19:34.181Z,2.78
2022-10-19T19:24:43.171Z,2.22
2022-10-19T19:29:51.455Z,1.90
2022-10-19T19:35:00.213Z,1.20
2022-10-19T19:45:16.700Z,1.83
2022-10-19T19:50:24.755Z,1.13
2022-10-19T19:55:39.054Z,1.55
2022-10-19T20:00:47.185Z,1.55
2022-10-19T20:05:57.500Z,1.70
2022-10-19T20:11:06.538Z,1.35
2022-10-19T20:21:26.413Z,2.17
2022-10-19T20:26:33.643Z,1.65
2022-10-19T20:31:41.786Z,1.55
2022-10-19T20:36:49.802Z,1.27
2022-10-19T20:41:57.466Z,1.10
2022-10-19T20:47:04.512Z,1.90
2022-10-19T20:52:12.061Z,1.48
2022-10-19T20:57:18.410Z,1.90
2022-10-19T21:02:24.414Z,1.77
2022-10-19T21:07:32.305Z,1.98
2022-10-19T21:12:38.574Z,2.53
2022-10-19T21:17:44.889Z,2.10
2022-10-19T21:22:52.219Z,2.50
2022-10-19T21:27:58.362Z,2.25
2022-10-19T21:33:04.348Z,1.90
2022-10-19T21:38:11.589Z,2.28
2022-10-19T21:43:17.560Z,1.80
2022-10-19T21:48:24.428Z,2.03
2022-10-19T21:53:31.879Z,2.20
2022-10-19T21:58:38.358Z,1.40
2022-10-19T22:03:44.453Z,1.23
2022-10-19T22:08:51.839Z,1.40
2022-10-19T22:13:59.438Z,1.27
2022-10-19T22:19:07.515Z,2.20
2022-10-19T22:24:17.066Z,2.08
2022-10-19T22:29:23.127Z,2.85
2022-10-19T22:34:29.095Z,2.05
2022-10-19T22:39:36.640Z,2.30
2022-10-19T22:44:43.009Z,2.10
2022-10-19T22:49:49.255Z,1.80
2022-10-19T22:54:57.020Z,1.95
2022-10-19T23:00:03.143Z,2.00
2022-10-19T23:05:11.573Z,2.33
2022-10-19T23:10:19.501Z,2.10
2022-10-19T23:15:25.597Z,2.35
2022-10-19T23:20:31.750Z,2.00
2022-10-19T23:25:39.301Z,1.92
2022-10-19T23:30:45.949Z,2.90
2022-10-19T23:35:52.058Z,1.85
2022-10-19T23:40:59.689Z,2.20
2022-10-19T23:46:06.729Z,1.92
2022-10-19T23:51:16.152Z,3.08
